Time,TemperatureF,DewpointF,PressureIn,WindDirection,WindDirectionDegrees,WindSpeedMPH,WindSpeedGustMPH,Humidity,HourlyPrecipIn,Conditions,Clouds,dailyrainin,SoftwareType,DateUTC
2013-05-29 00:02:00,68.0,66.2,29.09,SSW,202,5.8,5.8,94,0.00,,---,0.00,VWS V14.01,2013-05-29 05:02:00,
2013-05-29 00:07:00,67.8,66.3,29.09,SSW,202,1.6,2.9,95,0.00,,---,0.00,VWS V14.01,2013-05-29 05:07:00,
2013-05-29 00:12:00,67.6,66.2,29.09,WSW,248,8.1,8.1,95,0.00,,---,0.00,VWS V14.01,2013-05-29 05:12:00,
2013-05-29 00:17:00,67.5,66.3,29.09,SW,225,4.3,4.3,96,0.00,,---,0.00,VWS V14.01,2013-05-29 05:17:00,
2013-05-29 00:22:00,67.3,66.1,29.09,West,270,6.5,6.5,96,0.00,,---,0.00,VWS V14.01,2013-05-29 05:22:00,
2013-05-29 00:27:00,66.9,65.8,29.09,WSW,248,5.8,10.1,96,0.00,,---,0.00,VWS V14.01,2013-05-29 05:27:00,
2013-05-29 00:32:00,66.7,65.6,29.09,West,270,4.7,4.7,96,0.00,,---,0.00,VWS V14.01,2013-05-29 05:32:00,
2013-05-29 00:37:00,66.7,65.6,29.09,WSW,248,4.9,4.9,96,0.00,,---,0.00,VWS V14.01,2013-05-29 05:37:00,
2013-05-29 00:42:00,66.6,65.4,29.09,West,270,1.3,1.3,96,0.00,,---,0.00,VWS V14.01,2013-05-29 05:42:00,
2013-05-29 00:47:00,66.4,65.2,29.09,NW,315,0.0,0.9,96,0.00,,---,0.00,VWS V14.01,2013-05-29 05:47:00,
2013-05-29 00:52:00,66.2,65.0,29.09,NNW,338,0.0,0.0,96,0.00,,---,0.00,VWS V14.01,2013-05-29 05:52:00,
2013-05-29 00:57:00,66.2,65.0,29.09,NNW,338,0.0,0.0,96,0.00,,---,0.00,VWS V14.01,2013-05-29 05:57:00,
2013-05-29 01:02:00,66.0,64.8,29.06,NNW,338,0.0,0.0,96,0.00,,---,0.00,VWS V14.01,2013-05-29 06:02:00,
2013-05-29 01:07:00,65.8,64.7,29.06,NNW,338,0.0,0.0,96,0.00,,---,0.00,VWS V14.01,2013-05-29 06:07:00,
2013-05-29 01:12:00,65.8,64.7,29.06,SSE,158,2.7,2.7,96,0.00,,---,0.00,VWS V14.01,2013-05-29 06:12:00,
2013-05-29 01:17:00,65.7,64.5,29.06,ESE,112,0.0,0.0,96,0.00,,---,0.00,VWS V14.01,2013-05-29 06:17:00,
2013-05-29 01:22:00,65.7,64.5,29.06,SE,135,0.0,0.0,96,0.00,,---,0.00,VWS V14.01,2013-05-29 06:22:00,
2013-05-29 01:27:00,65.5,64.6,29.06,SE,135,0.9,0.9,97,0.00,,---,0.00,VWS V14.01,2013-05-29 06:27:00,
2013-05-29 01:32:00,65.5,64.6,29.06,SE,135,1.6,1.6,97,0.00,,---,0.00,VWS V14.01,2013-05-29 06:32:00,
2013-05-29 01:37:00,65.3,64.4,29.06,East,90,1.1,1.1,97,0.00,,---,0.00,VWS V14.01,2013-05-29 06:37:00,
2013-05-29 01:42:00,65.3,64.4,29.06,SE,135,0.0,0.0,97,0.00,,---,0.00,VWS V14.01,2013-05-29 06:42:00,
2013-05-29 01:48:00,65.1,64.2,29.06,ESE,112,2.0,2.0,97,0.00,,---,0.00,VWS V14.01,2013-05-29 06:48:00,
2013-05-29 01:53:00,65.1,64.2,29.06,SSW,202,2.2,2.2,97,0.00,,---,0.00,VWS V14.01,2013-05-29 06:53:00,
2013-05-29 01:58:00,65.1,64.2,29.06,SSW,202,1.3,1.3,97,0.00,,---,0.00,VWS V14.01,2013-05-29 06:58:00,
2013-05-29 02:03:00,64.9,64.1,29.06,South,180,2.0,2.2,97,0.00,,---,0.00,VWS V14.01,2013-05-29 07:03:00,
2013-05-29 02:08:00,64.9,64.1,29.06,South,180,0.0,1.6,97,0.00,,---,0.00,VWS V14.01,2013-05-29 07:08:00,
2013-05-29 02:13:00,64.9,64.1,29.06,South,180,3.1,3.6,97,0.00,,---,0.00,VWS V14.01,2013-05-29 07:13:00,
2013-05-29 02:18:00,64.9,64.1,29.06,SSE,158,4.0,4.0,97,0.00,,---,0.00,VWS V14.01,2013-05-29 07:18:00,
2013-05-29 02:23:00,64.9,64.1,29.06,SSW,202,0.9,2.2,97,0.00,,---,0.00,VWS V14.01,2013-05-29 07:23:00,
2013-05-29 02:28:00,64.8,63.9,29.06,SE,135,2.9,3.4,97,0.00,,---,0.00,VWS V14.01,2013-05-29 07:28:00,
2013-05-29 02:33:00,64.8,63.9,29.06,SW,225,3.1,3.1,97,0.00,,---,0.00,VWS V14.01,2013-05-29 07:33:00,
2013-05-29 02:38:00,64.8,63.9,29.06,SSW,202,2.7,3.1,97,0.00,,---,0.00,VWS V14.01,2013-05-29 07:38:00,
2013-05-29 02:43:00,64.8,63.9,29.06,South,180,4.9,4.9,97,0.00,,---,0.00,VWS V14.01,2013-05-29 07:43:00,
2013-05-29 02:48:00,64.6,63.7,29.06,South,180,3.4,3.4,97,0.00,,---,0.00,VWS V14.01,2013-05-29 07:48:00,
2013-05-29 02:53:00,64.6,63.7,29.06,SSW,202,2.7,3.1,97,0.00,,---,0.00,VWS V14.01,2013-05-29 07:53:00,
2013-05-29 02:58:00,64.4,63.5,29.06,South,180,2.5,2.5,97,0.00,,---,0.00,VWS V14.01,2013-05-29 07:58:00,
2013-05-29 03:04:00,64.4,63.5,29.06,SSW,202,2.7,2.7,97,0.00,,---,0.00,VWS V14.01,2013-05-29 08:04:00,
2013-05-29 03:09:00,64.4,63.5,29.06,South,180,4.7,6.5,97,0.00,,---,0.00,VWS V14.01,2013-05-29 08:09:00,
2013-05-29 03:14:00,64.2,63.3,29.09,SW,225,4.7,6.5,97,0.00,,---,0.00,VWS V14.01,2013-05-29 08:14:00,
2013-05-29 03:19:00,64.2,63.3,29.09,SSW,202,5.4,5.4,97,0.00,,---,0.00,VWS V14.01,2013-05-29 08:19:00,
2013-05-29 03:24:00,64.0,63.2,29.09,SW,225,2.2,2.7,97,0.00,,---,0.00,VWS V14.01,2013-05-29 08:24:00,
2013-05-29 03:29:00,64.0,63.2,29.09,East,90,3.1,7.2,97,0.00,,---,0.00,VWS V14.01,2013-05-29 08:29:00,
2013-05-29 03:34:00,63.9,63.0,29.09,South,180,4.3,4.3,97,0.00,,---,0.00,VWS V14.01,2013-05-29 08:34:00,
2013-05-29 03:39:00,63.9,63.0,29.09,SSW,202,2.7,2.7,97,0.00,,---,0.00,VWS V14.01,2013-05-29 08:39:00,
2013-05-29 03:44:00,63.9,63.0,29.09,SSW,202,2.9,5.4,97,0.00,,---,0.00,VWS V14.01,2013-05-29 08:44:00,
2013-05-29 03:49:00,63.9,63.0,29.09,SW,225,3.1,3.1,97,0.00,,---,0.00,VWS V14.01,2013-05-29 08:49:00,
2013-05-29 03:55:00,63.9,63.0,29.09,SSW,202,4.9,4.9,97,0.00,,---,0.00,VWS V14.01,2013-05-29 08:55:00,
2013-05-29 04:00:00,63.9,63.0,29.09,South,180,2.5,2.5,97,0.00,,---,0.00,VWS V14.01,2013-05-29 09:00:00,
2013-05-29 04:05:00,63.9,63.0,29.09,West,270,2.9,3.4,97,0.00,,---,0.00,VWS V14.01,2013-05-29 09:05:00,
2013-05-29 04:10:00,63.9,63.0,29.09,West,270,13.6,13.6,97,0.00,,---,0.00,VWS V14.01,2013-05-29 09:10:00,
2013-05-29 04:15:00,63.9,62.7,29.14,West,270,5.8,5.8,96,0.00,,---,0.00,VWS V14.01,2013-05-29 09:15:00,
2013-05-29 04:20:00,63.5,62.3,29.14,SSW,202,5.8,7.6,96,0.00,,---,0.00,VWS V14.01,2013-05-29 09:20:00,
2013-05-29 04:25:00,63.3,62.2,29.14,West,270,2.9,2.9,96,0.00,,---,0.00,VWS V14.01,2013-05-29 09:25:00,
2013-05-29 04:30:00,63.3,62.5,29.14,WSW,248,4.0,4.0,97,0.00,,---,0.00,VWS V14.01,2013-05-29 09:30:00,
2013-05-29 04:35:00,63.3,62.5,29.14,WSW,248,3.1,4.3,97,0.00,,---,0.00,VWS V14.01,2013-05-29 09:35:00,
2013-05-29 04:40:00,63.3,62.5,29.14,WSW,248,7.2,7.2,97,0.00,,---,0.00,VWS V14.01,2013-05-29 09:40:00,
2013-05-29 04:45:00,63.1,62.3,29.14,WSW,248,3.6,3.6,97,0.00,,---,0.00,VWS V14.01,2013-05-29 09:45:00,
2013-05-29 04:50:00,63.1,62.3,29.14,West,270,2.5,3.8,97,0.00,,---,0.00,VWS V14.01,2013-05-29 09:50:00,
2013-05-29 04:55:00,63.1,62.3,29.14,WSW,248,1.3,1.6,97,0.00,,---,0.00,VWS V14.01,2013-05-29 09:55:00,
2013-05-29 05:00:00,63.1,62.3,29.12,NNW,338,0.0,0.0,97,0.00,,---,0.00,VWS V14.01,2013-05-29 10:00:00,
2013-05-29 05:05:00,63.0,62.1,29.12,ESE,112,0.9,2.5,97,0.00,,---,0.00,VWS V14.01,2013-05-29 10:05:00,
2013-05-29 05:10:00,63.0,62.1,29.12,ESE,112,2.0,2.0,97,0.00,,---,0.00,VWS V14.01,2013-05-29 10:10:00,
2013-05-29 05:15:00,62.8,61.9,29.09,ESE,112,2.9,2.9,97,0.00,,---,0.00,VWS V14.01,2013-05-29 10:15:00,
2013-05-29 05:20:00,62.6,61.7,29.09,SW,225,2.7,2.7,97,0.00,,---,0.00,VWS V14.01,2013-05-29 10:20:00,
2013-05-29 05:25:00,62.6,61.7,29.09,SW,225,0.0,0.0,97,0.00,,---,0.00,VWS V14.01,2013-05-29 10:25:00,
2013-05-29 05:30:00,62.6,61.7,29.09,WSW,248,2.7,3.1,97,0.00,,---,0.00,VWS V14.01,2013-05-29 10:30:00,
2013-05-29 05:35:00,62.6,61.7,29.09,SW,225,0.0,0.0,97,0.00,,---,0.00,VWS V14.01,2013-05-29 10:35:00,
2013-05-29 05:40:00,62.6,61.7,29.09,South,180,0.9,2.2,97,0.00,,---,0.00,VWS V14.01,2013-05-29 10:40:00,
2013-05-29 05:46:00,62.6,61.7,29.09,SSE,158,2.5,2.5,97,0.00,,---,0.00,VWS V14.01,2013-05-29 10:46:00,
2013-05-29 05:51:00,62.6,61.7,29.09,East,90,1.1,1.3,97,0.00,,---,0.00,VWS V14.01,2013-05-29 10:51:00,
2013-05-29 05:56:00,62.6,61.7,29.09,East,90,2.0,2.0,97,0.00,,---,0.00,VWS V14.01,2013-05-29 10:56:00,
2013-05-29 06:01:00,62.6,61.7,29.09,SSE,158,2.2,2.2,97,0.00,,---,0.00,VWS V14.01,2013-05-29 11:01:00,
2013-05-29 06:06:00,62.6,61.7,29.09,East,90,2.0,2.0,97,0.00,,---,0.00,VWS V14.01,2013-05-29 11:06:00,
2013-05-29 06:11:00,62.6,61.7,29.09,NNE,22,3.6,3.6,97,0.00,,---,0.00,VWS V14.01,2013-05-29 11:11:00,
2013-05-29 06:16:00,62.6,61.7,29.09,ENE,68,4.3,4.3,97,0.00,,---,0.00,VWS V14.01,2013-05-29 11:16:00,
2013-05-29 06:21:00,62.8,61.9,29.09,ESE,112,2.0,2.0,97,0.00,,---,0.00,VWS V14.01,2013-05-29 11:21:00,
2013-05-29 06:26:00,62.8,62.2,29.09,East,90,1.3,1.3,98,0.00,,---,0.00,VWS V14.01,2013-05-29 11:26:00,
2013-05-29 06:31:00,63.0,62.4,29.09,ESE,112,1.6,1.6,98,0.00,,---,0.00,VWS V14.01,2013-05-29 11:31:00,
2013-05-29 06:36:00,63.0,62.4,29.09,South,180,0.9,0.9,98,0.00,,---,0.00,VWS V14.01,2013-05-29 11:36:00,
2013-05-29 06:41:00,63.1,62.6,29.09,South,180,1.6,1.6,98,0.00,,---,0.00,VWS V14.01,2013-05-29 11:41:00,
2013-05-29 06:47:00,63.5,62.9,29.09,WSW,248,2.7,2.7,98,0.00,,---,0.00,VWS V14.01,2013-05-29 11:47:00,
2013-05-29 06:52:00,63.7,63.1,29.09,SSW,202,2.2,2.5,98,0.00,,---,0.00,VWS V14.01,2013-05-29 11:52:00,
2013-05-29 06:57:00,64.0,63.5,29.09,SSW,202,1.6,1.6,98,0.00,,---,0.00,VWS V14.01,2013-05-29 11:57:00,
2013-05-29 07:02:00,64.2,63.7,29.09,SSW,202,2.9,2.9,98,0.00,,---,0.00,VWS V14.01,2013-05-29 12:02:00,
2013-05-29 07:07:00,65.1,64.5,29.09,SW,225,3.6,3.6,98,0.00,,---,0.00,VWS V14.01,2013-05-29 12:07:00,
2013-05-29 07:12:00,66.0,65.4,29.09,SSE,158,0.9,1.6,98,0.00,,---,0.00,VWS V14.01,2013-05-29 12:12:00,
2013-05-29 07:17:00,66.9,66.0,29.12,WSW,248,2.0,2.0,97,0.00,,---,0.00,VWS V14.01,2013-05-29 12:17:00,
2013-05-29 07:22:00,67.6,66.8,29.12,SSE,158,1.1,1.1,97,0.00,,---,0.00,VWS V14.01,2013-05-29 12:22:00,
2013-05-29 07:27:00,68.0,67.1,29.12,South,180,0.0,1.1,97,0.00,,---,0.00,VWS V14.01,2013-05-29 12:27:00,
2013-05-29 07:32:00,67.8,66.9,29.12,South,180,2.0,3.4,97,0.00,,---,0.00,VWS V14.01,2013-05-29 12:32:00,
2013-05-29 07:38:00,67.6,66.8,29.12,SW,225,2.2,2.7,97,0.00,,---,0.00,VWS V14.01,2013-05-29 12:38:00,
2013-05-29 07:43:00,67.6,66.8,29.12,SSW,202,0.0,2.0,97,0.00,,---,0.00,VWS V14.01,2013-05-29 12:43:00,
2013-05-29 07:48:00,67.5,66.6,29.12,SSW,202,0.9,2.0,97,0.00,,---,0.00,VWS V14.01,2013-05-29 12:48:00,
2013-05-29 07:53:00,68.0,67.1,29.12,South,180,0.0,1.1,97,0.00,,---,0.00,VWS V14.01,2013-05-29 12:53:00,
2013-05-29 07:58:00,68.4,67.5,29.12,SSW,202,4.0,4.0,97,0.00,,---,0.00,VWS V14.01,2013-05-29 12:58:00,
2013-05-29 08:03:00,68.4,67.2,29.12,SW,225,2.9,2.9,96,0.00,,---,0.00,VWS V14.01,2013-05-29 13:03:00,
2013-05-29 08:08:00,68.5,67.4,29.12,SSW,202,0.9,1.6,96,0.00,,---,0.00,VWS V14.01,2013-05-29 13:08:00,
2013-05-29 08:13:00,69.3,68.1,29.12,SW,225,0.0,0.0,96,0.00,,---,0.00,VWS V14.01,2013-05-29 13:13:00,
2013-05-29 08:18:00,69.1,67.9,29.12,SSE,158,2.5,2.5,96,0.00,,---,0.00,VWS V14.01,2013-05-29 13:18:00,
2013-05-29 08:23:00,68.9,67.4,29.12,SW,225,0.9,1.3,95,0.00,,---,0.00,VWS V14.01,2013-05-29 13:23:00,
2013-05-29 08:28:00,68.9,67.4,29.12,SW,225,2.5,2.5,95,0.00,,---,0.00,VWS V14.01,2013-05-29 13:28:00,
2013-05-29 08:33:00,68.9,67.4,29.12,SSW,202,3.4,4.0,95,0.00,,---,0.00,VWS V14.01,2013-05-29 13:33:00,
2013-05-29 08:38:00,69.1,67.6,29.12,South,180,2.5,2.5,95,0.00,,---,0.00,VWS V14.01,2013-05-29 13:38:00,
2013-05-29 08:44:00,69.3,67.5,29.12,SSW,202,2.5,2.9,94,0.00,,---,0.00,VWS V14.01,2013-05-29 13:44:00,
2013-05-29 08:49:00,69.4,67.6,29.12,SSW,202,2.9,2.9,94,0.00,,---,0.00,VWS V14.01,2013-05-29 13:49:00,
2013-05-29 08:54:00,69.8,68.0,29.12,East,90,2.7,3.8,94,0.00,,---,0.00,VWS V14.01,2013-05-29 13:54:00,
2013-05-29 08:59:00,70.5,68.7,29.12,SSW,202,9.4,9.4,94,0.00,,---,0.00,VWS V14.01,2013-05-29 13:59:00,
2013-05-29 09:04:00,71.1,68.9,29.12,South,180,3.4,3.4,93,0.00,,---,0.00,VWS V14.01,2013-05-29 14:04:00,
2013-05-29 09:09:00,72.0,69.8,29.12,SSW,202,3.4,3.4,93,0.00,,---,0.00,VWS V14.01,2013-05-29 14:09:00,
2013-05-29 09:14:00,72.7,70.2,29.12,SW,225,5.8,5.8,92,0.00,,---,0.00,VWS V14.01,2013-05-29 14:14:00,
2013-05-29 09:19:00,73.0,70.6,29.12,SSW,202,2.0,4.3,92,0.00,,---,0.00,VWS V14.01,2013-05-29 14:19:00,
2013-05-29 09:24:00,73.4,70.6,29.12,South,180,3.8,3.8,91,0.00,,---,0.00,VWS V14.01,2013-05-29 14:24:00,
2013-05-29 09:29:00,73.9,71.2,29.12,South,180,3.6,6.5,91,0.00,,---,0.00,VWS V14.01,2013-05-29 14:29:00,
2013-05-29 09:34:00,74.3,71.2,29.12,SSW,202,4.0,6.0,90,0.00,,---,0.00,VWS V14.01,2013-05-29 14:34:00,
2013-05-29 09:39:00,74.7,71.5,29.12,SW,225,7.2,7.2,90,0.00,,---,0.00,VWS V14.01,2013-05-29 14:39:00,
2013-05-29 09:44:00,75.0,71.9,29.12,SW,225,8.1,8.1,90,0.00,,---,0.00,VWS V14.01,2013-05-29 14:44:00,
2013-05-29 09:49:00,75.0,71.6,29.12,SSE,158,3.8,7.4,89,0.00,,---,0.00,VWS V14.01,2013-05-29 14:49:00,
2013-05-29 09:54:00,75.4,71.9,29.12,SSW,202,6.7,7.6,89,0.00,,---,0.00,VWS V14.01,2013-05-29 14:54:00,
2013-05-29 09:59:00,75.7,72.3,29.12,SSW,202,3.6,6.3,89,0.00,,---,0.00,VWS V14.01,2013-05-29 14:59:00,
2013-05-29 10:04:00,76.3,72.8,29.12,SSW,202,5.6,6.0,89,0.00,,---,0.00,VWS V14.01,2013-05-29 15:04:00,
2013-05-29 10:09:00,76.6,73.2,29.12,SSW,202,4.7,8.5,89,0.00,,---,0.00,VWS V14.01,2013-05-29 15:09:00,
2013-05-29 10:14:00,77.2,73.3,29.12,South,180,2.9,2.9,88,0.00,,---,0.00,VWS V14.01,2013-05-29 15:14:00,
2013-05-29 10:19:00,77.2,73.0,29.12,SW,225,4.0,4.0,87,0.00,,---,0.00,VWS V14.01,2013-05-29 15:19:00,
2013-05-29 10:24:00,77.5,73.4,29.12,SSW,202,2.5,2.5,87,0.00,,---,0.00,VWS V14.01,2013-05-29 15:24:00,
2013-05-29 10:29:00,78.1,73.9,29.12,South,180,3.1,7.6,87,0.00,,---,0.00,VWS V14.01,2013-05-29 15:29:00,
2013-05-29 10:34:00,78.6,74.4,29.12,SSW,202,3.6,3.6,87,0.00,,---,0.00,VWS V14.01,2013-05-29 15:34:00,
2013-05-29 10:39:00,78.8,73.9,29.12,SSW,202,7.8,7.8,85,0.00,,---,0.00,VWS V14.01,2013-05-29 15:39:00,
2013-05-29 10:44:00,78.8,73.9,29.12,SW,225,8.5,8.5,85,0.00,,---,0.00,VWS V14.01,2013-05-29 15:44:00,
2013-05-29 10:49:00,79.0,73.7,29.12,South,180,5.4,5.4,84,0.00,,---,0.00,VWS V14.01,2013-05-29 15:49:00,
2013-05-29 10:55:00,79.5,74.3,29.12,South,180,5.4,5.4,84,0.00,,---,0.00,VWS V14.01,2013-05-29 15:55:00,
2013-05-29 11:00:00,79.9,74.6,29.12,SSW,202,5.6,5.6,84,0.00,,---,0.00,VWS V14.01,2013-05-29 16:00:00,
2013-05-29 11:05:00,80.1,74.8,29.12,SSW,202,2.9,5.4,84,0.00,,---,0.00,VWS V14.01,2013-05-29 16:05:00,
2013-05-29 11:10:00,80.4,74.8,29.12,SSW,202,5.8,6.3,83,0.00,,---,0.00,VWS V14.01,2013-05-29 16:10:00,
2013-05-29 11:15:00,80.6,74.6,29.12,WSW,248,5.8,5.8,82,0.00,,---,0.00,VWS V14.01,2013-05-29 16:15:00,
2013-05-29 11:20:00,80.8,74.4,29.12,SSW,202,9.4,9.4,81,0.00,,---,0.00,VWS V14.01,2013-05-29 16:20:00,
2013-05-29 11:25:00,81.1,74.8,29.12,SW,225,5.8,5.8,81,0.00,,---,0.00,VWS V14.01,2013-05-29 16:25:00,
2013-05-29 11:30:00,81.5,75.1,29.12,SSW,202,2.5,2.5,81,0.00,,---,0.00,VWS V14.01,2013-05-29 16:30:00,
2013-05-29 11:35:00,81.9,75.5,29.12,SSW,202,10.7,10.7,81,0.00,,---,0.00,VWS V14.01,2013-05-29 16:35:00,
2013-05-29 11:40:00,82.0,75.3,29.12,SSW,202,4.7,4.7,80,0.00,,---,0.00,VWS V14.01,2013-05-29 16:40:00,
2013-05-29 11:45:00,82.2,75.4,29.12,South,180,1.6,6.0,80,0.00,,---,0.00,VWS V14.01,2013-05-29 16:45:00,
2013-05-29 11:50:00,82.4,74.9,29.12,South,180,9.6,9.8,78,0.00,,---,0.00,VWS V14.01,2013-05-29 16:50:00,
2013-05-29 11:55:00,82.4,74.9,29.12,SW,225,5.6,6.3,78,0.00,,---,0.00,VWS V14.01,2013-05-29 16:55:00,
2013-05-29 12:00:00,82.8,75.2,29.12,South,180,6.5,6.5,78,0.00,,---,0.00,VWS V14.01,2013-05-29 17:00:00,
2013-05-29 12:05:00,82.8,74.8,29.12,South,180,10.1,10.1,77,0.00,,---,0.00,VWS V14.01,2013-05-29 17:05:00,
2013-05-29 12:10:00,82.9,75.0,29.12,SSE,158,3.8,3.8,77,0.00,,---,0.00,VWS V14.01,2013-05-29 17:10:00,
2013-05-29 12:15:00,83.3,75.3,29.12,SSW,202,12.3,12.3,77,0.00,,---,0.00,VWS V14.01,2013-05-29 17:15:00,
2013-05-29 12:20:00,83.5,75.5,29.12,SSW,202,2.7,2.9,77,0.00,,---,0.00,VWS V14.01,2013-05-29 17:20:00,
2013-05-29 12:25:00,83.5,75.1,29.12,SW,225,5.8,5.8,76,0.00,,---,0.00,VWS V14.01,2013-05-29 17:25:00,
2013-05-29 12:30:00,83.8,75.5,29.12,South,180,4.3,4.3,76,0.00,,---,0.00,VWS V14.01,2013-05-29 17:30:00,
2013-05-29 12:35:00,83.7,75.3,29.12,SW,225,6.5,8.7,76,0.00,,---,0.00,VWS V14.01,2013-05-29 17:35:00,
2013-05-29 12:40:00,83.1,74.8,29.12,SW,225,5.4,5.4,76,0.00,,---,0.00,VWS V14.01,2013-05-29 17:40:00,
2013-05-29 12:45:00,83.3,74.9,29.12,SSW,202,5.8,5.8,76,0.00,,---,0.00,VWS V14.01,2013-05-29 17:45:00,
2013-05-29 12:50:00,83.5,74.7,29.12,SSW,202,1.6,3.1,75,0.00,,---,0.00,VWS V14.01,2013-05-29 17:50:00,
2013-05-29 12:55:00,83.5,74.7,29.12,SSW,202,5.8,5.8,75,0.00,,---,0.00,VWS V14.01,2013-05-29 17:55:00,
2013-05-29 13:00:00,84.0,75.2,29.12,SW,225,6.5,6.5,75,0.00,,---,0.00,VWS V14.01,2013-05-29 18:00:00,
2013-05-29 13:05:00,84.2,75.4,29.12,SSW,202,4.3,4.3,75,0.00,,---,0.00,VWS V14.01,2013-05-29 18:05:00,
2013-05-29 13:10:00,84.0,74.8,29.12,SW,225,13.2,13.2,74,0.00,,---,0.00,VWS V14.01,2013-05-29 18:10:00,
2013-05-29 13:15:00,84.0,74.0,29.12,SSW,202,10.7,10.7,72,0.00,,---,0.00,VWS V14.01,2013-05-29 18:15:00,
2013-05-29 13:21:00,83.5,73.9,29.12,SSW,202,4.9,4.9,73,0.00,,---,0.00,VWS V14.01,2013-05-29 18:21:00,
2013-05-29 13:26:00,83.8,74.3,29.12,SSW,202,2.9,2.9,73,0.00,,---,0.00,VWS V14.01,2013-05-29 18:26:00,
2013-05-29 13:31:00,84.4,74.8,29.12,SSW,202,3.8,3.8,73,0.00,,---,0.00,VWS V14.01,2013-05-29 18:31:00,
2013-05-29 13:36:00,84.9,75.7,29.12,SSW,202,6.7,6.7,74,0.00,,---,0.00,VWS V14.01,2013-05-29 18:36:00,
2013-05-29 13:41:00,85.6,76.0,29.12,SSW,202,4.0,4.0,73,0.00,,---,0.00,VWS V14.01,2013-05-29 18:41:00,
2013-05-29 13:46:00,86.0,75.9,29.12,SSW,202,1.6,4.0,72,0.00,,---,0.00,VWS V14.01,2013-05-29 18:46:00,
2013-05-29 13:51:00,86.0,75.5,29.12,South,180,4.0,4.0,71,0.00,,---,0.00,VWS V14.01,2013-05-29 18:51:00,
2013-05-29 13:56:00,86.2,75.7,29.12,South,180,5.8,5.8,71,0.00,,---,0.00,VWS V14.01,2013-05-29 18:56:00,
2013-05-29 14:01:00,86.9,75.5,29.09,SW,225,9.2,9.2,69,0.00,,---,0.00,VWS V14.01,2013-05-29 19:01:00,
2013-05-29 14:06:00,87.3,74.5,29.09,SSW,202,5.4,5.4,66,0.00,,---,0.00,VWS V14.01,2013-05-29 19:06:00,
2013-05-29 14:11:00,87.6,74.9,29.09,SW,225,3.4,3.4,66,0.00,,---,0.00,VWS V14.01,2013-05-29 19:11:00,
2013-05-29 14:16:00,87.6,75.8,29.09,SW,225,4.3,7.4,68,0.00,,---,0.00,VWS V14.01,2013-05-29 19:16:00,
2013-05-29 14:22:00,87.1,74.3,29.09,South,180,6.0,13.0,66,0.00,,---,0.00,VWS V14.01,2013-05-29 19:22:00,
2013-05-29 14:27:00,87.1,74.3,29.09,SSW,202,13.0,13.0,66,0.00,,---,0.00,VWS V14.01,2013-05-29 19:27:00,
2013-05-29 14:32:00,86.9,74.2,29.09,SSE,158,6.5,6.5,66,0.00,,---,0.00,VWS V14.01,2013-05-29 19:32:00,
2013-05-29 14:37:00,85.8,72.7,29.09,SW,225,4.9,4.9,65,0.00,,---,0.00,VWS V14.01,2013-05-29 19:37:00,
2013-05-29 14:42:00,85.6,72.5,29.09,SW,225,7.6,13.0,65,0.00,,---,0.00,VWS V14.01,2013-05-29 19:42:00,
2013-05-29 14:47:00,85.6,72.1,29.09,SSW,202,3.6,10.3,64,0.00,,---,0.00,VWS V14.01,2013-05-29 19:47:00,
2013-05-29 14:52:00,85.8,72.2,29.09,SSE,158,7.6,8.5,64,0.00,,---,0.00,VWS V14.01,2013-05-29 19:52:00,
2013-05-29 14:57:00,84.9,71.4,29.09,SSE,158,2.7,4.3,64,0.00,,---,0.00,VWS V14.01,2013-05-29 19:57:00,
2013-05-29 15:02:00,85.1,72.0,29.09,East,90,9.2,9.4,65,0.00,,---,0.00,VWS V14.01,2013-05-29 20:02:00,
2013-05-29 15:07:00,85.5,72.4,29.09,SW,225,4.0,6.5,65,0.00,,---,0.00,VWS V14.01,2013-05-29 20:07:00,
2013-05-29 15:12:00,85.8,72.2,29.09,South,180,5.4,5.4,64,0.00,,---,0.00,VWS V14.01,2013-05-29 20:12:00,
2013-05-29 15:17:00,85.5,72.4,29.09,East,90,2.7,2.7,65,0.00,,---,0.00,VWS V14.01,2013-05-29 20:17:00,
2013-05-29 15:22:00,85.8,72.7,29.09,WSW,248,8.5,8.5,65,0.00,,---,0.00,VWS V14.01,2013-05-29 20:22:00,
2013-05-29 15:27:00,86.0,72.4,29.09,SSE,158,4.7,4.7,64,0.00,,---,0.00,VWS V14.01,2013-05-29 20:27:00,
2013-05-29 15:32:00,85.8,72.7,29.09,SSW,202,2.0,3.6,65,0.00,,---,0.00,VWS V14.01,2013-05-29 20:32:00,
2013-05-29 15:37:00,86.2,73.0,29.09,SSW,202,2.5,3.8,65,0.00,,---,0.00,VWS V14.01,2013-05-29 20:37:00,
2013-05-29 15:42:00,86.4,73.2,29.09,SW,225,3.6,3.6,65,0.00,,---,0.00,VWS V14.01,2013-05-29 20:42:00,
2013-05-29 15:47:00,86.2,72.6,29.09,SSW,202,10.5,10.5,64,0.00,,---,0.00,VWS V14.01,2013-05-29 20:47:00,
2013-05-29 15:53:00,86.2,72.6,29.09,SSW,202,3.6,6.3,64,0.00,,---,0.00,VWS V14.01,2013-05-29 20:53:00,
2013-05-29 15:58:00,85.6,72.1,29.09,South,180,13.0,13.0,64,0.00,,---,0.00,VWS V14.01,2013-05-29 20:58:00,
2013-05-29 16:03:00,85.6,72.5,29.09,SSE,158,3.4,10.3,65,0.00,,---,0.00,VWS V14.01,2013-05-29 21:03:00,
2013-05-29 16:08:00,86.2,72.6,29.09,SE,135,5.4,5.4,64,0.00,,---,0.00,VWS V14.01,2013-05-29 21:08:00,
2013-05-29 16:13:00,86.0,72.4,29.09,SSW,202,5.6,6.3,64,0.00,,---,0.00,VWS V14.01,2013-05-29 21:13:00,
2013-05-29 16:18:00,86.2,72.6,29.09,South,180,5.6,5.6,64,0.00,,---,0.00,VWS V14.01,2013-05-29 21:18:00,
2013-05-29 16:23:00,86.4,72.8,29.09,South,180,10.5,10.5,64,0.00,,---,0.00,VWS V14.01,2013-05-29 21:23:00,
2013-05-29 16:28:00,85.5,71.9,29.09,South,180,4.3,4.3,64,0.00,,---,0.00,VWS V14.01,2013-05-29 21:28:00,
2013-05-29 16:33:00,84.9,71.4,29.09,North,0,3.4,6.3,64,0.00,,---,0.00,VWS V14.01,2013-05-29 21:33:00,
2013-05-29 16:38:00,84.6,71.1,29.09,SW,225,6.5,6.5,64,0.00,,---,0.00,VWS V14.01,2013-05-29 21:38:00,
2013-05-29 16:43:00,84.4,71.3,29.09,SW,225,9.8,9.8,65,0.00,,---,0.00,VWS V14.01,2013-05-29 21:43:00,
2013-05-29 16:48:00,84.7,71.7,29.06,South,180,8.1,8.1,65,0.00,,---,0.00,VWS V14.01,2013-05-29 21:48:00,
2013-05-29 16:53:00,84.9,71.8,29.06,SSW,202,4.3,4.3,65,0.00,,---,0.00,VWS V14.01,2013-05-29 21:53:00,
2013-05-29 16:58:00,84.7,71.7,29.06,SW,225,4.7,7.6,65,0.00,,---,0.00,VWS V14.01,2013-05-29 21:58:00,
2013-05-29 17:03:00,84.7,71.7,29.06,SE,135,6.5,6.5,65,0.00,,---,0.00,VWS V14.01,2013-05-29 22:03:00,
2013-05-29 17:08:00,84.9,71.8,29.06,SW,225,0.0,3.1,65,0.00,,---,0.00,VWS V14.01,2013-05-29 22:08:00,
2013-05-29 17:13:00,84.9,71.4,29.06,South,180,3.8,6.0,64,0.00,,---,0.00,VWS V14.01,2013-05-29 22:13:00,
2013-05-29 17:18:00,84.6,71.1,29.06,SSW,202,4.3,7.4,64,0.00,,---,0.00,VWS V14.01,2013-05-29 22:18:00,
2013-05-29 17:23:00,84.6,71.5,29.06,SSW,202,5.4,5.4,65,0.00,,---,0.00,VWS V14.01,2013-05-29 22:23:00,
2013-05-29 17:28:00,84.6,71.5,29.06,SSW,202,7.6,7.6,65,0.00,,---,0.00,VWS V14.01,2013-05-29 22:28:00,
2013-05-29 17:33:00,84.6,71.1,29.06,South,180,3.4,3.4,64,0.00,,---,0.00,VWS V14.01,2013-05-29 22:33:00,
2013-05-29 17:38:00,84.4,70.9,29.06,SSW,202,7.4,7.4,64,0.00,,---,0.00,VWS V14.01,2013-05-29 22:38:00,
2013-05-29 17:43:00,84.2,70.7,29.06,SSW,202,6.7,6.7,64,0.00,,---,0.00,VWS V14.01,2013-05-29 22:43:00,
2013-05-29 17:48:00,84.4,71.3,29.06,SSW,202,2.9,3.6,65,0.00,,---,0.00,VWS V14.01,2013-05-29 22:48:00,
2013-05-29 17:53:00,84.7,71.7,29.06,South,180,2.7,2.7,65,0.00,,---,0.00,VWS V14.01,2013-05-29 22:53:00,
2013-05-29 17:58:00,84.4,70.9,29.06,South,180,4.5,4.7,64,0.00,,---,0.00,VWS V14.01,2013-05-29 22:58:00,
2013-05-29 18:03:00,84.4,70.9,29.06,South,180,4.9,4.9,64,0.00,,---,0.00,VWS V14.01,2013-05-29 23:03:00,
2013-05-29 18:09:00,84.2,71.2,29.06,South,180,6.0,6.0,65,0.00,,---,0.00,VWS V14.01,2013-05-29 23:09:00,
2013-05-29 18:14:00,84.0,70.5,29.06,ESE,112,2.9,4.3,64,0.00,,---,0.00,VWS V14.01,2013-05-29 23:14:00,
2013-05-29 18:19:00,83.8,70.4,29.06,SW,225,3.4,6.5,64,0.00,,---,0.00,VWS V14.01,2013-05-29 23:19:00,
2013-05-29 18:24:00,83.7,70.2,29.06,SSE,158,3.4,6.3,64,0.00,,---,0.00,VWS V14.01,2013-05-29 23:24:00,
2013-05-29 18:29:00,83.5,70.0,29.06,SSW,202,4.0,5.4,64,0.00,,---,0.00,VWS V14.01,2013-05-29 23:29:00,
2013-05-29 18:34:00,83.3,70.3,29.06,South,180,7.4,7.4,65,0.00,,---,0.00,VWS V14.01,2013-05-29 23:34:00,
2013-05-29 18:39:00,83.1,70.1,29.06,SSE,158,3.1,3.1,65,0.00,,---,0.00,VWS V14.01,2013-05-29 23:39:00,
2013-05-29 18:44:00,82.8,69.8,29.06,WSW,248,3.8,5.8,65,0.00,,---,0.00,VWS V14.01,2013-05-29 23:44:00,
2013-05-29 18:49:00,82.8,69.8,29.06,ESE,112,4.7,4.7,65,0.00,,---,0.00,VWS V14.01,2013-05-29 23:49:00,
2013-05-29 18:54:00,82.4,69.5,29.06,South,180,6.0,6.0,65,0.00,,---,0.00,VWS V14.01,2013-05-29 23:54:00,
2013-05-29 18:59:00,82.2,69.7,29.06,SW,225,0.9,3.6,66,0.00,,---,0.00,VWS V14.01,2013-05-29 23:59:00,
2013-05-29 19:04:00,81.9,69.4,29.06,SSW,202,11.0,11.0,66,0.00,,---,0.00,VWS V14.01,2013-05-30 00:04:00,
2013-05-29 19:09:00,81.5,69.1,29.06,SW,225,3.8,7.6,66,0.00,,---,0.00,VWS V14.01,2013-05-30 00:09:00,
2013-05-29 19:14:00,81.3,69.3,29.06,South,180,6.9,6.9,67,0.00,,---,0.00,VWS V14.01,2013-05-30 00:14:00,
2013-05-29 19:19:00,81.3,69.3,29.06,South,180,2.7,3.8,67,0.00,,---,0.00,VWS V14.01,2013-05-30 00:19:00,
2013-05-29 19:25:00,81.1,69.2,29.06,East,90,3.1,3.1,67,0.00,,---,0.00,VWS V14.01,2013-05-30 00:25:00,
2013-05-29 19:30:00,81.0,69.4,29.06,SW,225,2.9,2.9,68,0.00,,---,0.00,VWS V14.01,2013-05-30 00:30:00,
2013-05-29 19:35:00,80.6,69.1,29.06,South,180,2.9,2.9,68,0.00,,---,0.00,VWS V14.01,2013-05-30 00:35:00,
2013-05-29 19:40:00,80.2,69.2,29.06,South,180,2.5,2.5,69,0.00,,---,0.00,VWS V14.01,2013-05-30 00:40:00,
2013-05-29 19:45:00,79.9,68.8,29.06,SSE,158,5.8,5.8,69,0.00,,---,0.00,VWS V14.01,2013-05-30 00:45:00,
2013-05-29 19:50:00,79.5,68.5,29.06,South,180,4.0,4.9,69,0.00,,---,0.00,VWS V14.01,2013-05-30 00:50:00,
2013-05-29 19:55:00,79.3,68.3,29.06,South,180,3.4,3.4,69,0.00,,---,0.00,VWS V14.01,2013-05-30 00:55:00,
2013-05-29 20:00:00,79.2,68.1,29.06,SSE,158,3.8,3.8,69,0.00,,---,0.00,VWS V14.01,2013-05-30 01:00:00,
2013-05-29 20:05:00,79.0,67.9,29.06,South,180,3.6,3.6,69,0.00,,---,0.00,VWS V14.01,2013-05-30 01:05:00,
2013-05-29 20:10:00,78.6,68.0,29.06,SSW,202,3.1,4.7,70,0.00,,---,0.00,VWS V14.01,2013-05-30 01:10:00,
2013-05-29 20:16:00,78.4,68.3,29.06,South,180,2.7,2.7,71,0.00,,---,0.00,VWS V14.01,2013-05-30 01:16:00,
2013-05-29 20:21:00,78.1,67.9,29.06,SSW,202,5.4,5.4,71,0.00,,---,0.00,VWS V14.01,2013-05-30 01:21:00,
2013-05-29 20:26:00,77.9,67.8,29.06,SSE,158,4.9,4.9,71,0.00,,---,0.00,VWS V14.01,2013-05-30 01:26:00,
2013-05-29 20:31:00,77.7,67.6,29.06,South,180,3.4,4.7,71,0.00,,---,0.00,VWS V14.01,2013-05-30 01:31:00,
2013-05-29 20:36:00,77.4,67.6,29.06,SE,135,4.3,4.3,72,0.00,,---,0.00,VWS V14.01,2013-05-30 01:36:00,
2013-05-29 20:41:00,77.4,67.6,29.06,WSW,248,1.6,2.0,72,0.00,,---,0.00,VWS V14.01,2013-05-30 01:41:00,
2013-05-29 20:46:00,77.0,67.3,29.06,SSW,202,2.7,6.0,72,0.00,,---,0.00,VWS V14.01,2013-05-30 01:46:00,
2013-05-29 20:51:00,76.8,67.1,29.06,SSE,158,1.1,1.1,72,0.00,,---,0.00,VWS V14.01,2013-05-30 01:51:00,
2013-05-29 20:56:00,76.5,66.8,29.06,SSE,158,3.1,3.1,72,0.00,,---,0.00,VWS V14.01,2013-05-30 01:56:00,
2013-05-29 21:01:00,76.3,67.0,29.06,SSE,158,4.0,4.0,73,0.00,,---,0.00,VWS V14.01,2013-05-30 02:01:00,
2013-05-29 21:06:00,76.1,66.8,29.06,WSW,248,2.9,5.8,73,0.00,,---,0.00,VWS V14.01,2013-05-30 02:06:00,
2013-05-29 21:11:00,76.1,66.8,29.06,SW,225,2.7,2.9,73,0.00,,---,0.00,VWS V14.01,2013-05-30 02:11:00,
2013-05-29 21:16:00,75.9,66.7,29.06,SW,225,1.1,1.1,73,0.00,,---,0.00,VWS V14.01,2013-05-30 02:16:00,
2013-05-29 21:21:00,75.7,66.9,29.06,SW,225,2.0,2.0,74,0.00,,---,0.00,VWS V14.01,2013-05-30 02:21:00,
2013-05-29 21:26:00,75.6,66.7,29.06,SSW,202,5.4,5.4,74,0.00,,---,0.00,VWS V14.01,2013-05-30 02:26:00,
2013-05-29 21:31:00,75.4,66.5,29.09,WSW,248,3.6,3.6,74,0.00,,---,0.00,VWS V14.01,2013-05-30 02:31:00,
2013-05-29 21:36:00,75.4,66.5,29.09,SSE,158,4.3,4.3,74,0.00,,---,0.00,VWS V14.01,2013-05-30 02:36:00,
2013-05-29 21:41:00,75.2,66.3,29.09,SE,135,7.4,7.4,74,0.00,,---,0.00,VWS V14.01,2013-05-30 02:41:00,
2013-05-29 21:46:00,75.0,66.6,29.09,East,90,3.1,3.1,75,0.00,,---,0.00,VWS V14.01,2013-05-30 02:46:00,
2013-05-29 21:52:00,74.8,66.4,29.09,South,180,5.8,5.8,75,0.00,,---,0.00,VWS V14.01,2013-05-30 02:52:00,
2013-05-29 21:57:00,74.8,66.4,29.09,NE,45,2.9,4.3,75,0.00,,---,0.00,VWS V14.01,2013-05-30 02:57:00,
2013-05-29 22:02:00,74.7,66.2,29.09,SSW,202,3.1,3.1,75,0.00,,---,0.00,VWS V14.01,2013-05-30 03:02:00,
2013-05-29 22:07:00,74.5,66.4,29.09,South,180,1.6,1.6,76,0.00,,---,0.00,VWS V14.01,2013-05-30 03:07:00,
2013-05-29 22:12:00,74.3,66.2,29.09,South,180,1.3,1.3,76,0.00,,---,0.00,VWS V14.01,2013-05-30 03:12:00,
2013-05-29 22:17:00,74.1,66.1,29.09,SSW,202,3.8,4.0,76,0.00,,---,0.00,VWS V14.01,2013-05-30 03:17:00,
2013-05-29 22:22:00,74.1,66.1,29.09,SW,225,2.9,4.3,76,0.00,,---,0.00,VWS V14.01,2013-05-30 03:22:00,
2013-05-29 22:27:00,74.1,66.5,29.09,South,180,6.3,6.3,77,0.00,,---,0.00,VWS V14.01,2013-05-30 03:27:00,
2013-05-29 22:32:00,73.9,66.3,29.09,SE,135,3.4,4.3,77,0.00,,---,0.00,VWS V14.01,2013-05-30 03:32:00,
2013-05-29 22:37:00,73.9,66.3,29.09,SSW,202,7.8,7.8,77,0.00,,---,0.00,VWS V14.01,2013-05-30 03:37:00,
2013-05-29 22:42:00,73.9,66.3,29.09,SE,135,6.9,6.9,77,0.00,,---,0.00,VWS V14.01,2013-05-30 03:42:00,
2013-05-29 22:47:00,73.8,66.1,29.09,ESE,112,2.9,2.9,77,0.00,,---,0.00,VWS V14.01,2013-05-30 03:47:00,
2013-05-29 22:52:00,73.8,66.1,29.09,South,180,4.3,4.3,77,0.00,,---,0.00,VWS V14.01,2013-05-30 03:52:00,
2013-05-29 22:57:00,73.8,66.1,29.09,SSW,202,4.9,4.9,77,0.00,,---,0.00,VWS V14.01,2013-05-30 03:57:00,
2013-05-29 23:01:00,73.8,66.1,29.09,SE,135,3.6,3.6,77,0.00,,---,0.00,VWS V14.01,2013-05-30 04:01:00,
2013-05-29 23:06:00,73.6,65.9,29.09,SSE,158,4.0,5.6,77,0.00,,---,0.00,VWS V14.01,2013-05-30 04:06:00,
2013-05-29 23:11:00,73.6,65.9,29.09,South,180,5.4,5.4,77,0.00,,---,0.00,VWS V14.01,2013-05-30 04:11:00,
2013-05-29 23:16:00,73.8,66.1,29.09,SSE,158,4.7,4.7,77,0.00,,---,0.00,VWS V14.01,2013-05-30 04:16:00,
2013-05-29 23:21:00,73.8,66.1,29.09,NE,45,3.1,9.8,77,0.00,,---,0.00,VWS V14.01,2013-05-30 04:21:00,
2013-05-29 23:27:00,73.6,65.9,29.09,SSW,202,4.0,4.0,77,0.00,,---,0.00,VWS V14.01,2013-05-30 04:27:00,
2013-05-29 23:32:00,73.8,66.1,29.09,SSE,158,3.4,5.4,77,0.00,,---,0.00,VWS V14.01,2013-05-30 04:32:00,
2013-05-29 23:37:00,73.6,65.9,29.09,SE,135,4.3,4.3,77,0.00,,---,0.00,VWS V14.01,2013-05-30 04:37:00,
2013-05-29 23:42:00,73.4,65.8,29.09,SSE,158,3.8,4.3,77,0.00,,---,0.00,VWS V14.01,2013-05-30 04:42:00,
2013-05-29 23:47:00,73.4,65.8,29.12,SSW,202,3.8,4.7,77,0.00,,---,0.00,VWS V14.01,2013-05-30 04:47:00,
2013-05-29 23:52:00,73.2,66.0,29.12,SSW,202,4.9,4.9,78,0.00,,---,0.00,VWS V14.01,2013-05-30 04:52:00,
2013-05-29 23:57:00,73.2,66.0,29.12,SSW,202,5.6,5.6,78,0.00,,---,0.00,VWS V14.01,2013-05-30 04:57:00,